Time;durP1;ratioP1;P1;durP2;ratioP2;P2;SDS_P1;SDS_P2;PMS_P1;PMS_P2;Temp;Humidity;BMP_temperature;BMP_pressure;BME280_temperature;BME280_humidity;BME280_pressure;Samples;Min_cycle;Max_cycle;Signal;HPM_P1;HPM_P2
2021/12/24 09:44:16;;;;;;;26.50;9.40;;;;;;;;;;5110649;27;20377;-86
2021/12/24 09:46:43;;;;;;;18.48;8.77;;;;;;;;;;5110951;28;20036;-86
2021/12/24 09:49:13;;;;;;;22.90;8.40;;;;;;;;;;5109194;28;20079;-86
2021/12/24 09:51:41;;;;;;;20.50;7.32;;;;;;;;;;5109289;28;20131;-86
2021/12/24 09:54:12;;;;;;;21.05;7.03;;;;;;;;;;5110590;28;20045;-86
2021/12/24 09:56:38;;;;;;;18.20;7.60;;;;;;;;;;5110711;28;20036;-85
2021/12/24 09:59:04;;;;;;;18.88;6.88;;;;;;;;;;5109018;28;20043;-84
2021/12/24 10:01:35;;;;;;;7.57;3.45;;;;;;;;;;5109274;28;20035;-84
2021/12/24 10:04:08;;;;;;;7.30;3.17;;;;;;;;;;5108701;28;20048;-84
2021/12/24 10:06:35;;;;;;;5.40;2.30;;;;;;;;;;5109152;28;20036;-85
2021/12/24 10:09:03;;;;;;;6.07;2.42;;;;;;;;;;5110000;28;20048;-85
2021/12/24 10:11:30;;;;;;;4.28;2.20;;;;;;;;;;5108913;28;20603;-85
2021/12/24 10:14:03;;;;;;;7.25;2.50;;;;;;;;;;5108610;28;20438;-85
2021/12/24 10:16:29;;;;;;;6.65;2.53;;;;;;;;;;5091925;28;20134;-85
2021/12/24 10:18:56;;;;;;;6.47;2.42;;;;;;;;;;5108692;28;20113;-85
2021/12/24 10:21:26;;;;;;;5.22;2.70;;;;;;;;;;5108813;28;20036;-85
2021/12/24 10:23:56;;;;;;;5.68;2.72;;;;;;;;;;5108381;28;20047;-85
2021/12/24 10:26:22;;;;;;;6.05;2.80;;;;;;;;;;5108788;28;20082;-85
2021/12/24 10:28:59;;;;;;;6.40;2.90;;;;;;;;;;5091673;28;20165;-85
2021/12/24 10:31:30;;;;;;;5.05;2.40;;;;;;;;;;5108671;28;20118;-86
2021/12/24 10:34:06;;;;;;;7.15;3.03;;;;;;;;;;5109955;28;20071;-85
2021/12/24 10:36:32;;;;;;;4.40;2.13;;;;;;;;;;5110102;28;20036;-84
2021/12/24 10:38:58;;;;;;;5.63;3.03;;;;;;;;;;5108422;28;20490;-84
2021/12/24 10:41:25;;;;;;;6.88;2.67;;;;;;;;;;5108579;28;20044;-83
2021/12/24 10:43:52;;;;;;;7.55;3.20;;;;;;;;;;5108057;28;20196;-86
2021/12/24 10:46:18;;;;;;;5.32;2.40;;;;;;;;;;5108276;28;20481;-84
2021/12/24 10:49:03;;;;;;;6.07;2.58;;;;;;;;;;5108274;28;20119;-84
2021/12/24 10:51:54;;;;;;;6.22;2.78;;;;;;;;;;5109612;28;20043;-85
2021/12/24 10:54:20;;;;;;;5.72;2.45;;;;;;;;;;5101662;28;20089;-84
2021/12/24 10:56:46;;;;;;;6.10;2.30;;;;;;;;;;5094711;28;20072;-85
2021/12/24 10:59:12;;;;;;;5.40;2.40;;;;;;;;;;5077430;28;20051;-84
2021/12/24 11:01:39;;;;;;;4.28;1.88;;;;;;;;;;5095746;28;20044;-84
2021/12/24 11:04:05;;;;;;;5.35;2.20;;;;;;;;;;5094392;28;20036;-85
2021/12/24 11:06:31;;;;;;;4.32;2.03;;;;;;;;;;5094457;28;20040;-85
2021/12/24 11:08:58;;;;;;;5.47;2.60;;;;;;;;;;5094536;28;20043;-85
2021/12/24 11:11:24;;;;;;;5.45;2.17;;;;;;;;;;5094122;28;20047;-85
2021/12/24 11:13:52;;;;;;;6.05;2.45;;;;;;;;;;5095524;28;20044;-85
2021/12/24 11:16:19;;;;;;;6.80;2.83;;;;;;;;;;5093992;28;20447;-85
2021/12/24 11:18:46;;;;;;;5.80;2.70;;;;;;;;;;5094912;28;20513;-85
2021/12/24 11:21:18;;;;;;;6.60;2.60;;;;;;;;;;5095363;28;20105;-84
2021/12/24 11:23:44;;;;;;;5.88;2.90;;;;;;;;;;5095373;28;20040;-90
2021/12/24 11:26:30;;;;;;;6.20;2.60;;;;;;;;;;5093831;28;20039;-85
2021/12/24 11:28:57;;;;;;;5.93;2.92;;;;;;;;;;5094996;28;20391;-84
2021/12/24 11:31:27;;;;;;;6.18;2.50;;;;;;;;;;5093875;28;20071;-85
2021/12/24 11:33:53;;;;;;;5.32;2.47;;;;;;;;;;5094156;28;20075;-85
2021/12/24 11:36:21;;;;;;;5.93;2.65;;;;;;;;;;5094889;28;20040;-84
2021/12/24 11:38:48;;;;;;;6.25;3.05;;;;;;;;;;5094000;28;20040;-85
2021/12/24 11:41:16;;;;;;;5.43;2.67;;;;;;;;;;5093717;28;20387;-85
2021/12/24 11:43:44;;;;;;;5.85;2.85;;;;;;;;;;5093457;28;20560;-85
2021/12/24 11:46:12;;;;;;;5.15;2.65;;;;;;;;;;5093352;28;20544;-85
2021/12/24 11:48:38;;;;;;;5.45;2.70;;;;;;;;;;5093565;28;20041;-85
2021/12/24 11:51:08;;;;;;;5.30;2.72;;;;;;;;;;5093484;28;20040;-85
2021/12/24 11:53:35;;;;;;;8.40;2.30;;;;;;;;;;5093694;28;20487;-85
2021/12/24 11:56:06;;;;;;;5.10;2.38;;;;;;;;;;5093241;28;20036;-85
2021/12/24 11:58:32;;;;;;;5.10;2.60;;;;;;;;;;5093304;28;20040;-85
2021/12/24 12:01:03;;;;;;;5.50;2.60;;;;;;;;;;5094615;28;20399;-85
2021/12/24 12:03:31;;;;;;;6.47;2.92;;;;;;;;;;5093136;28;20059;-84
2021/12/24 12:05:57;;;;;;;5.28;2.25;;;;;;;;;;5093507;28;20043;-85
2021/12/24 12:08:26;;;;;;;6.32;2.80;;;;;;;;;;5094656;28;20036;-86
2021/12/24 12:10:54;;;;;;;5.72;3.05;;;;;;;;;;5093120;28;20126;-86
2021/12/24 12:13:38;;;;;;;7.10;3.22;;;;;;;;;;5093295;28;20048;-85
2021/12/24 12:16:05;;;;;;;5.15;2.88;;;;;;;;;;5094130;28;20051;-85
2021/12/24 12:18:33;;;;;;;5.15;2.67;;;;;;;;;;5076378;28;20043;-84
2021/12/24 12:21:08;;;;;;;6.60;2.67;;;;;;;;;;5092638;28;20411;-85
2021/12/24 12:24:04;;;;;;;5.60;2.58;;;;;;;;;;5092884;28;20460;-85
2021/12/24 12:26:43;;;;;;;6.22;2.90;;;;;;;;;;5092684;28;20052;-85
2021/12/24 12:29:15;;;;;;;5.75;2.40;;;;;;;;;;5093027;28;20126;-85
2021/12/24 12:31:41;;;;;;;5.57;3.03;;;;;;;;;;5075692;28;20488;-85
2021/12/24 12:34:26;;;;;;;6.15;3.10;;;;;;;;;;5092583;28;20123;-85
2021/12/24 12:36:52;;;;;;;5.35;2.92;;;;;;;;;;5092411;28;20055;-86
2021/12/24 12:39:27;;;;;;;5.13;2.45;;;;;;;;;;5092485;28;20163;-85
2021/12/24 12:41:53;;;;;;;;;;;;;;;;;;5094044;28;20036;-85
2021/12/24 12:44:19;;;;;;;5.03;2.60;;;;;;;;;;5092476;28;20402;-85
2021/12/24 12:46:51;;;;;;;5.55;2.67;;;;;;;;;;5092454;28;20161;-85
2021/12/24 12:49:31;;;;;;;5.03;2.42;;;;;;;;;;5093767;28;20040;-85
2021/12/24 12:51:58;;;;;;;5.47;2.72;;;;;;;;;;5092386;28;20051;-85
2021/12/24 12:54:28;;;;;;;5.95;2.92;;;;;;;;;;5092296;28;20044;-88
2021/12/24 12:57:09;;;;;;;5.32;2.45;;;;;;;;;;5093420;28;20044;-88
2021/12/24 12:59:35;;;;;;;5.32;2.47;;;;;;;;;;5093534;28;20040;-88
2021/12/24 13:02:01;;;;;;;5.30;2.60;;;;;;;;;;5087332;28;20498;-88
2021/12/24 13:04:27;;;;;;;6.95;2.40;;;;;;;;;;5082216;28;20047;-88
2021/12/24 13:06:54;;;;;;;4.80;2.60;;;;;;;;;;5071801;28;20036;-86
2021/12/24 13:09:24;;;;;;;5.32;2.92;;;;;;;;;;5071868;28;20064;-88
2021/12/24 13:11:55;;;;;;;5.72;2.80;;;;;;;;;;5072955;28;20110;-89
2021/12/24 13:14:23;;;;;;;6.35;2.80;;;;;;;;;;5071749;28;20091;-88
2021/12/24 13:17:44;;;;;;;6.65;3.30;;;;;;;;;;5072650;28;20044;-90
2021/12/24 13:19:59;;;;;;;6.18;3.13;;;;;;;;;;5091393;28;20104;-89
2021/12/24 13:24:55;;;;;;;5.35;3.00;;;;;;;;;;5093145;28;20044;-88
2021/12/24 13:27:25;;;;;;;5.68;3.00;;;;;;;;;;5091937;28;20499;-89
2021/12/24 13:30:09;;;;;;;6.45;2.67;;;;;;;;;;5092073;28;20083;-89
2021/12/24 13:32:42;;;;;;;6.07;3.05;;;;;;;;;;5091470;28;20044;-89
2021/12/24 13:35:08;;;;;;;6.03;2.83;;;;;;;;;;5093241;28;20070;-89
2021/12/24 13:37:34;;;;;;;7.40;3.38;;;;;;;;;;5091480;28;20047;-87
2021/12/24 13:40:00;;;;;;;6.30;3.20;;;;;;;;;;5091943;28;20039;-88
2021/12/24 13:42:26;;;;;;;6.30;2.95;;;;;;;;;;5091522;28;20048;-87
2021/12/24 13:45:00;;;;;;;5.20;2.97;;;;;;;;;;5091944;28;20498;-89
2021/12/24 13:47:45;;;;;;;6.03;2.67;;;;;;;;;;5091791;28;20052;-89
2021/12/24 13:50:33;;;;;;;5.45;3.00;;;;;;;;;;5091666;28;20529;-89
2021/12/24 13:55:53;;;;;;;5.00;2.42;;;;;;;;;;5093122;28;20079;-87
2021/12/24 13:58:22;;;;;;;5.43;2.85;;;;;;;;;;5091289;28;20063;-88
2021/12/24 14:00:49;;;;;;;5.82;2.95;;;;;;;;;;5092720;28;20039;-89
2021/12/24 14:03:15;;;;;;;6.75;3.33;;;;;;;;;;5092584;28;20395;-89
2021/12/24 14:05:49;;;;;;;5.90;3.22;;;;;;;;;;5091711;28;20043;-89
2021/12/24 14:08:16;;;;;;;5.80;2.90;;;;;;;;;;5091245;28;20066;-87
2021/12/24 14:10:43;;;;;;;5.45;2.75;;;;;;;;;;5074503;28;20071;-87
2021/12/24 14:13:17;;;;;;;6.13;2.80;;;;;;;;;;5091067;28;20044;-86
2021/12/24 14:16:11;;;;;;;5.55;3.13;;;;;;;;;;5091701;28;20118;-87
2021/12/24 14:24:11;;;;;;;6.47;2.60;;;;;;;;;;5091142;28;20051;-88
2021/12/24 14:26:38;;;;;;;5.40;2.80;;;;;;;;;;5092664;28;20051;-88
2021/12/24 14:29:06;;;;;;;7.03;2.95;;;;;;;;;;5091688;28;20044;-88
2021/12/24 14:31:47;;;;;;;6.47;3.10;;;;;;;;;;5095150;28;20379;-86
2021/12/24 14:34:13;;;;;;;5.15;2.97;;;;;;;;;;5096338;28;20032;-88
2021/12/24 14:36:55;;;;;;;6.65;3.42;;;;;;;;;;5094752;28;20118;-89
2021/12/24 14:39:21;;;;;;;7.10;2.97;;;;;;;;;;5095157;28;20556;-87
2021/12/24 14:41:47;;;;;;;7.15;3.55;;;;;;;;;;5096110;28;20039;-87
2021/12/24 14:44:27;;;;;;;7.82;3.78;;;;;;;;;;5094338;28;20499;-88
2021/12/24 14:46:57;;;;;;;6.32;3.42;;;;;;;;;;5096158;28;20048;-89
2021/12/24 14:49:37;;;;;;;7.35;3.60;;;;;;;;;;5095070;28;20097;-87
2021/12/24 14:52:20;;;;;;;8.77;3.38;;;;;;;;;;5095906;28;20314;-88
2021/12/24 14:55:04;;;;;;;6.88;3.22;;;;;;;;;;5096112;28;20097;-88
2021/12/24 14:57:32;;;;;;;5.72;3.38;;;;;;;;;;5095626;28;20501;-86
2021/12/24 15:00:04;;;;;;;6.47;3.50;;;;;;;;;;5094542;28;20490;-87
2021/12/24 15:02:30;;;;;;;5.97;3.20;;;;;;;;;;5095542;28;20040;-88
2021/12/24 15:04:56;;;;;;;6.75;4.00;;;;;;;;;;5095806;28;20408;-87
2021/12/24 15:07:29;;;;;;;10.05;4.63;;;;;;;;;;5094285;28;20056;-87
2021/12/24 15:10:12;;;;;;;6.82;3.75;;;;;;;;;;5094630;28;20499;-88
2021/12/24 15:12:50;;;;;;;7.00;3.15;;;;;;;;;;5094370;28;20395;-88
2021/12/24 15:15:17;;;;;;;6.28;3.10;;;;;;;;;;5094318;28;20059;-88
2021/12/24 15:17:44;;;;;;;7.88;3.00;;;;;;;;;;5094037;28;20040;-89
2021/12/24 15:20:10;;;;;;;6.30;2.42;;;;;;;;;;5094277;28;20047;-89
2021/12/24 15:22:36;;;;;;;6.53;2.58;;;;;;;;;;5093879;28;20048;-90
2021/12/24 15:25:04;;;;;;;4.72;2.60;;;;;;;;;;5077263;28;20498;-89
2021/12/24 15:27:35;;;;;;;5.82;2.10;;;;;;;;;;5077267;28;20044;-88
2021/12/24 15:30:03;;;;;;;5.95;1.90;;;;;;;;;;5077135;28;20123;-88
2021/12/24 15:32:29;;;;;;;6.05;1.73;;;;;;;;;;5093623;28;20509;-89
2021/12/24 15:34:55;;;;;;;8.10;2.53;;;;;;;;;;5093837;28;20082;-90
2021/12/24 15:37:21;;;;;;;7.13;2.85;;;;;;;;;;5095117;28;20063;-88
2021/12/24 15:39:47;;;;;;;8.68;2.38;;;;;;;;;;5093779;28;20196;-89
2021/12/24 15:42:15;;;;;;;7.10;2.78;;;;;;;;;;5093511;28;20040;-88
2021/12/24 15:44:45;;;;;;;7.97;1.50;;;;;;;;;;5094027;28;20500;-87
2021/12/24 15:47:11;;;;;;;3.85;1.20;;;;;;;;;;5094945;28;20040;-88
2021/12/24 15:49:37;;;;;;;3.15;1.13;;;;;;;;;;5093681;28;20475;-88
2021/12/24 15:52:03;;;;;;;5.00;1.50;;;;;;;;;;5093567;28;20403;-87
2021/12/24 15:54:30;;;;;;;4.22;1.10;;;;;;;;;;5093621;28;20048;-88
2021/12/24 15:56:56;;;;;;;7.75;1.92;;;;;;;;;;5093338;28;20032;-88
2021/12/24 15:59:22;;;;;;;6.60;1.90;;;;;;;;;;5093194;28;20047;-88
2021/12/24 16:01:48;;;;;;;6.30;2.10;;;;;;;;;;5094804;28;20040;-87
2021/12/24 16:04:14;;;;;;;9.32;1.67;;;;;;;;;;5093222;28;20106;-87
2021/12/24 16:06:40;;;;;;;5.20;1.33;;;;;;;;;;5094527;28;20032;-87
2021/12/24 16:09:06;;;;;;;9.23;1.67;;;;;;;;;;5094293;28;20036;-86
2021/12/24 16:11:32;;;;;;;8.68;1.95;;;;;;;;;;5093117;28;20040;-86
2021/12/24 16:13:58;;;;;;;8.98;1.70;;;;;;;;;;5092780;28;20044;-87
2021/12/24 16:16:25;;;;;;;6.38;1.92;;;;;;;;;;5093122;28;20399;-87
2021/12/24 16:18:52;;;;;;;10.20;2.28;;;;;;;;;;5092979;28;20077;-87
2021/12/24 16:21:18;;;;;;;8.07;3.17;;;;;;;;;;5093212;28;20479;-87
2021/12/24 16:23:44;;;;;;;11.90;2.67;;;;;;;;;;5092515;28;20036;-88
2021/12/24 16:26:10;;;;;;;13.50;3.90;;;;;;;;;;5092991;28;20453;-87
2021/12/24 16:28:37;;;;;;;12.40;3.92;;;;;;;;;;5093165;28;20071;-87
2021/12/24 16:31:04;;;;;;;7.80;3.72;;;;;;;;;;5092670;28;20036;-87
2021/12/24 16:33:30;;;;;;;14.63;4.82;;;;;;;;;;5094248;28;20075;-88
2021/12/24 16:35:56;;;;;;;14.43;4.60;;;;;;;;;;5094333;28;20036;-90
2021/12/24 16:38:22;;;;;;;16.70;5.03;;;;;;;;;;5092821;28;20123;-90
2021/12/24 16:40:51;;;;;;;18.27;7.18;;;;;;;;;;5093171;28;20034;-89
2021/12/24 16:43:18;;;;;;;19.73;8.48;;;;;;;;;;5092484;28;20123;-90
2021/12/24 16:45:45;;;;;;;18.80;8.10;;;;;;;;;;5104985;28;20118;-91
2021/12/24 16:48:11;;;;;;;21.58;9.02;;;;;;;;;;5115548;28;20048;-84
2021/12/24 16:50:39;;;;;;;18.13;9.23;;;;;;;;;;5119261;28;20091;-84
2021/12/24 16:53:05;;;;;;;22.70;9.27;;;;;;;;;;5118361;28;20024;-86
2021/12/24 16:55:31;;;;;;;17.67;9.07;;;;;;;;;;5118402;28;20040;-84
2021/12/24 16:57:59;;;;;;;20.08;8.57;;;;;;;;;;5108136;28;20044;-91
2021/12/24 17:00:26;;;;;;;17.27;8.80;;;;;;;;;;5093738;28;20097;-90
2021/12/24 17:02:51;;;;;;;24.13;9.27;;;;;;;;;;5096694;28;20044;-90
2021/12/24 17:05:17;;;;;;;25.20;9.80;;;;;;;;;;5093856;28;20048;-89
2021/12/24 17:07:44;;;;;;;16.90;8.00;;;;;;;;;;5092345;28;20387;-87
2021/12/24 17:10:12;;;;;;;20.20;8.85;;;;;;;;;;5092476;28;20084;-90
2021/12/24 17:12:38;;;;;;;18.00;8.55;;;;;;;;;;5075450;28;20040;-90
2021/12/24 17:15:06;;;;;;;19.75;9.30;;;;;;;;;;5092182;28;20123;-91
2021/12/24 17:17:32;;;;;;;17.55;9.68;;;;;;;;;;5093674;28;20053;-89
2021/12/24 17:19:59;;;;;;;18.80;8.68;;;;;;;;;;5092322;28;20055;-92
2021/12/24 17:22:25;;;;;;;19.10;8.30;;;;;;;;;;5075372;28;20079;-90
2021/12/24 17:24:52;;;;;;;21.35;9.18;;;;;;;;;;5075150;28;20487;-89
2021/12/24 17:27:18;;;;;;;16.60;8.05;;;;;;;;;;5093452;28;20123;-88
2021/12/24 17:29:44;;;;;;;16.13;7.70;;;;;;;;;;5093309;28;20036;-88
2021/12/24 17:32:10;;;;;;;17.70;8.45;;;;;;;;;;5093445;28;20054;-90
2021/12/24 17:34:36;;;;;;;19.67;8.43;;;;;;;;;;5092974;28;20531;-89
2021/12/24 17:37:03;;;;;;;16.58;7.95;;;;;;;;;;5091914;28;20036;-88
2021/12/24 17:39:29;;;;;;;19.65;7.65;;;;;;;;;;5093261;28;20111;-90
2021/12/24 17:41:54;;;;;;;13.68;7.93;;;;;;;;;;5093260;28;20443;-90
2021/12/24 17:44:20;;;;;;;15.25;7.38;;;;;;;;;;5091331;28;20102;-89
2021/12/24 17:46:47;;;;;;;15.65;9.02;;;;;;;;;;5091909;28;20490;-88
2021/12/24 17:49:14;;;;;;;18.67;8.95;;;;;;;;;;5092973;28;20039;-89
2021/12/24 17:51:40;;;;;;;17.80;9.23;;;;;;;;;;5091717;28;20055;-89
2021/12/24 17:54:06;;;;;;;16.63;8.23;;;;;;;;;;5093038;28;20426;-89
2021/12/24 17:56:32;;;;;;;19.90;8.68;;;;;;;;;;5093151;28;20051;-89
2021/12/24 17:58:59;;;;;;;17.58;8.40;;;;;;;;;;5091826;28;20040;-90
2021/12/24 18:01:25;;;;;;;14.95;7.68;;;;;;;;;;5092060;28;20499;-90
2021/12/24 18:03:51;;;;;;;14.63;7.63;;;;;;;;;;5091645;28;20040;-90
2021/12/24 18:06:18;;;;;;;14.20;8.00;;;;;;;;;;5095759;28;20036;-88
2021/12/24 18:08:44;;;;;;;15.02;7.32;;;;;;;;;;5095697;28;20067;-90
2021/12/24 18:11:10;;;;;;;13.18;7.93;;;;;;;;;;5095897;28;20391;-91
2021/12/24 18:13:38;;;;;;;14.32;8.70;;;;;;;;;;5096524;28;20044;-86
2021/12/24 18:16:04;;;;;;;14.85;8.00;;;;;;;;;;5095738;28;20089;-88
2021/12/24 18:18:30;;;;;;;13.02;7.63;;;;;;;;;;5096845;28;20052;-88
2021/12/24 18:20:57;;;;;;;15.20;8.38;;;;;;;;;;5095520;28;20141;-88
2021/12/24 18:23:23;;;;;;;15.90;7.90;;;;;;;;;;5095047;28;20052;-88
2021/12/24 18:25:49;;;;;;;17.10;8.68;;;;;;;;;;5096430;28;20069;-89
2021/12/24 18:28:15;;;;;;;15.98;8.70;;;;;;;;;;5096675;28;20036;-87
2021/12/24 18:30:41;;;;;;;13.90;7.82;;;;;;;;;;5095220;28;20048;-90
2021/12/24 18:33:07;;;;;;;13.63;8.38;;;;;;;;;;5095296;28;20403;-86
2021/12/24 18:35:33;;;;;;;14.20;8.32;;;;;;;;;;5096181;28;20048;-89
2021/12/24 18:38:07;;;;;;;18.20;9.27;;;;;;;;;;5095057;28;20474;-88
2021/12/24 18:40:35;;;;;;;16.15;8.75;;;;;;;;;;5096348;28;20430;-88
2021/12/24 18:43:02;;;;;;;15.80;9.43;;;;;;;;;;5094655;28;20055;-87
2021/12/24 18:45:28;;;;;;;15.68;9.20;;;;;;;;;;5094876;28;20051;-91
2021/12/24 18:47:54;;;;;;;17.25;8.90;;;;;;;;;;5095012;28;20036;-85
2021/12/24 18:50:20;;;;;;;17.02;9.00;;;;;;;;;;5094788;28;20040;-87
2021/12/24 18:52:47;;;;;;;18.88;9.73;;;;;;;;;;5094546;28;20552;-86
2021/12/24 18:55:13;;;;;;;15.07;10.00;;;;;;;;;;5094796;28;20123;-88
2021/12/24 18:57:39;;;;;;;18.25;8.95;;;;;;;;;;5095960;28;20047;-87
2021/12/24 19:00:06;;;;;;;16.70;8.95;;;;;;;;;;5094515;28;20048;-87
2021/12/24 19:02:32;;;;;;;13.73;8.85;;;;;;;;;;5094691;28;20051;-88
2021/12/24 19:04:58;;;;;;;16.75;9.02;;;;;;;;;;5094599;28;20036;-88
2021/12/24 19:07:24;;;;;;;16.48;9.57;;;;;;;;;;5094535;28;20036;-87
2021/12/24 19:09:50;;;;;;;17.60;9.32;;;;;;;;;;5094198;28;20100;-87
2021/12/24 19:12:16;;;;;;;16.80;9.10;;;;;;;;;;5094601;28;20047;-87
2021/12/24 19:14:43;;;;;;;16.42;9.55;;;;;;;;;;5093757;28;20040;-86
2021/12/24 19:17:09;;;;;;;16.52;10.60;;;;;;;;;;5094313;28;20043;-88
2021/12/24 19:19:35;;;;;;;16.77;9.30;;;;;;;;;;5094266;28;20040;-87
2021/12/24 19:22:02;;;;;;;14.85;9.25;;;;;;;;;;5094166;28;20075;-87
2021/12/24 19:24:28;;;;;;;13.60;7.43;;;;;;;;;;5093757;28;20449;-85
2021/12/24 19:26:54;;;;;;;14.82;7.90;;;;;;;;;;5095447;28;20118;-87
2021/12/24 19:29:22;;;;;;;11.77;6.88;;;;;;;;;;5094115;28;20054;-87
2021/12/24 19:31:52;;;;;;;11.90;6.85;;;;;;;;;;5077376;28;20154;-87
2021/12/24 19:34:18;;;;;;;10.55;6.03;;;;;;;;;;5076903;28;20124;-86
2021/12/24 19:36:44;;;;;;;13.77;5.80;;;;;;;;;;5093803;28;20047;-87
2021/12/24 19:39:10;;;;;;;14.32;5.65;;;;;;;;;;5094091;28;20051;-88
2021/12/24 19:41:36;;;;;;;11.52;5.80;;;;;;;;;;5095058;28;20391;-87
2021/12/24 19:44:02;;;;;;;11.35;5.43;;;;;;;;;;5093397;28;20060;-86
2021/12/24 19:46:28;;;;;;;9.13;5.72;;;;;;;;;;5093813;28;20097;-87
2021/12/24 19:48:54;;;;;;;11.02;5.30;;;;;;;;;;5094968;28;20530;-85
2021/12/24 19:51:22;;;;;;;9.02;5.45;;;;;;;;;;5094905;28;20040;-85
2021/12/24 19:53:49;;;;;;;9.32;5.07;;;;;;;;;;5093519;28;20505;-86
2021/12/24 19:56:15;;;;;;;10.68;5.15;;;;;;;;;;5093587;28;20082;-86
2021/12/24 19:58:41;;;;;;;12.98;5.00;;;;;;;;;;5093775;28;20097;-87
2021/12/24 20:01:07;;;;;;;13.20;5.40;;;;;;;;;;5094739;28;20483;-87
2021/12/24 20:03:33;;;;;;;12.90;5.38;;;;;;;;;;5094593;28;20040;-87
2021/12/24 20:05:59;;;;;;;12.23;5.10;;;;;;;;;;5094624;28;20115;-87
2021/12/24 20:08:25;;;;;;;11.25;4.65;;;;;;;;;;5093565;28;20052;-87
2021/12/24 20:10:52;;;;;;;14.18;4.97;;;;;;;;;;5094409;28;20391;-85
2021/12/24 20:13:18;;;;;;;11.57;4.53;;;;;;;;;;5094627;28;20054;-87
2021/12/24 20:15:44;;;;;;;7.68;3.53;;;;;;;;;;5094409;28;20040;-87
2021/12/24 20:18:12;;;;;;;8.93;3.67;;;;;;;;;;5093400;28;20058;-88
2021/12/24 20:20:38;;;;;;;8.82;3.85;;;;;;;;;;5093058;28;20079;-87
2021/12/24 20:23:04;;;;;;;9.25;3.58;;;;;;;;;;5092958;28;20075;-87
2021/12/24 20:25:31;;;;;;;8.18;3.97;;;;;;;;;;5092946;28;20047;-88
2021/12/24 20:27:58;;;;;;;8.73;3.30;;;;;;;;;;5093559;28;20055;-87
2021/12/24 20:30:24;;;;;;;9.45;4.07;;;;;;;;;;5093006;28;20036;-85
2021/12/24 20:32:51;;;;;;;10.55;4.35;;;;;;;;;;5094307;28;20450;-87
2021/12/24 20:35:17;;;;;;;7.32;3.90;;;;;;;;;;5092923;28;20043;-88
2021/12/24 20:37:44;;;;;;;10.32;4.82;;;;;;;;;;5094034;28;20036;-88
2021/12/24 20:40:10;;;;;;;10.50;4.50;;;;;;;;;;5092493;28;20526;-88
2021/12/24 20:42:36;;;;;;;6.45;3.00;;;;;;;;;;5092624;28;20048;-90
2021/12/24 20:45:04;;;;;;;7.45;2.80;;;;;;;;;;5094073;28;20039;-86
2021/12/24 20:47:30;;;;;;;7.72;3.40;;;;;;;;;;5093935;28;20052;-89
2021/12/24 20:49:56;;;;;;;9.77;3.03;;;;;;;;;;5093711;28;20479;-87
2021/12/24 20:52:22;;;;;;;9.13;2.72;;;;;;;;;;5093710;28;20399;-86
2021/12/24 20:54:48;;;;;;;8.32;2.83;;;;;;;;;;5092590;28;20044;-87
2021/12/24 20:57:14;;;;;;;8.20;3.00;;;;;;;;;;5092378;28;20119;-86
2021/12/24 20:59:41;;;;;;;8.55;3.20;;;;;;;;;;5061122;28;20180;-85
2021/12/24 21:02:07;;;;;;;8.45;2.58;;;;;;;;;;5075258;28;20033;-87
2021/12/24 21:04:33;;;;;;;7.07;2.88;;;;;;;;;;5071873;28;20124;-87
2021/12/24 21:06:59;;;;;;;9.85;2.95;;;;;;;;;;5073320;28;20036;-86
2021/12/24 21:09:26;;;;;;;8.30;2.95;;;;;;;;;;5080548;28;20078;-88
2021/12/24 21:11:52;;;;;;;6.75;2.42;;;;;;;;;;5081970;28;20039;-86
2021/12/24 21:14:18;;;;;;;6.90;2.45;;;;;;;;;;5092300;28;20562;-88
2021/12/24 21:16:44;;;;;;;6.25;1.83;;;;;;;;;;5092054;28;20058;-89
2021/12/24 21:19:11;;;;;;;6.07;2.33;;;;;;;;;;5092601;28;20104;-88
2021/12/24 21:21:37;;;;;;;4.55;1.38;;;;;;;;;;5093060;28;20554;-88
2021/12/24 21:24:04;;;;;;;7.65;1.50;;;;;;;;;;5093016;28;20032;-87
2021/12/24 21:26:31;;;;;;;4.47;1.40;;;;;;;;;;5074843;28;20032;-87
2021/12/24 21:28:59;;;;;;;5.50;1.42;;;;;;;;;;5093254;28;20071;-87
2021/12/24 21:31:25;;;;;;;7.57;1.95;;;;;;;;;;5091636;28;20044;-86
2021/12/24 21:33:52;;;;;;;8.82;2.15;;;;;;;;;;5092843;28;20044;-86
2021/12/24 21:36:18;;;;;;;7.72;1.52;;;;;;;;;;5091875;28;20496;-87
2021/12/24 21:38:44;;;;;;;6.43;1.40;;;;;;;;;;5091491;28;20040;-87
2021/12/24 21:41:10;;;;;;;5.38;1.15;;;;;;;;;;5092760;28;20044;-87
2021/12/24 21:43:36;;;;;;;4.07;1.17;;;;;;;;;;5092625;28;20064;-88
2021/12/24 21:46:03;;;;;;;4.88;1.23;;;;;;;;;;5091443;28;20101;-87
2021/12/24 21:48:29;;;;;;;5.80;1.25;;;;;;;;;;5093139;28;20115;-87
2021/12/24 21:50:57;;;;;;;7.55;1.17;;;;;;;;;;5092576;28;20071;-88
2021/12/24 21:53:23;;;;;;;6.97;0.90;;;;;;;;;;5091844;28;20047;-89
2021/12/24 21:55:50;;;;;;;5.05;1.08;;;;;;;;;;5091303;28;20542;-88
2021/12/24 21:58:16;;;;;;;3.00;1.10;;;;;;;;;;5091773;28;20100;-86
2021/12/24 22:00:43;;;;;;;4.70;1.10;;;;;;;;;;5091487;28;20048;-87
2021/12/24 22:03:33;;;;;;;5.78;1.00;;;;;;;;;;5091210;28;20096;-87
2021/12/24 22:06:09;;;;;;;4.50;1.40;;;;;;;;;;5092441;28;20051;-88
2021/12/24 22:08:37;;;;;;;7.05;1.15;;;;;;;;;;5065706;28;20040;-89
2021/12/24 22:11:06;;;;;;;4.95;0.75;;;;;;;;;;5082613;28;20036;-87
2021/12/24 22:13:33;;;;;;;3.28;0.98;;;;;;;;;;5079814;28;20056;-85
2021/12/24 22:16:03;;;;;;;4.60;0.85;;;;;;;;;;5081646;28;20109;-90
2021/12/24 22:18:33;;;;;;;4.90;0.80;;;;;;;;;;5073796;28;20041;-87
2021/12/24 22:21:01;;;;;;;3.88;0.90;;;;;;;;;;5072519;28;20119;-86
2021/12/24 22:23:34;;;;;;;5.80;1.00;;;;;;;;;;5072322;28;20051;-84
2021/12/24 22:26:00;;;;;;;4.97;0.60;;;;;;;;;;5071462;28;20037;-87
2021/12/24 22:28:26;;;;;;;6.18;1.20;;;;;;;;;;5071019;28;20422;-85
2021/12/24 22:30:53;;;;;;;5.70;0.93;;;;;;;;;;5072272;28;20040;-86
2021/12/24 22:33:19;;;;;;;5.35;0.77;;;;;;;;;;5072279;28;20071;-87
2021/12/24 22:35:45;;;;;;;5.97;0.90;;;;;;;;;;5072294;28;20488;-86
2021/12/24 22:38:11;;;;;;;3.70;1.30;;;;;;;;;;5070923;28;20079;-88
